Time;durP1;ratioP1;P1;durP2;ratioP2;P2;SDS_P1;SDS_P2;PMS_P1;PMS_P2;Temp;Humidity;BMP_temperature;BMP_pressure;BME280_temperature;BME280_humidity;BME280_pressure;Samples;Min_cycle;Max_cycle;Signal;HPM_P1;HPM_P2
2023/02/10 00:00:24;;;;;;;20.45;11.77;;;23.10;34.40;;;;;;6116859;28;83454;-63
2023/02/10 00:03:25;;;;;;;22.02;12.02;;;23.10;34.50;;;;;;6131605;28;83369;-63
2023/02/10 00:06:26;;;;;;;17.08;11.25;;;23.10;34.50;;;;;;6130618;28;83564;-63
2023/02/10 00:09:26;;;;;;;20.67;11.45;;;23.10;34.40;;;;;;6123742;28;83072;-61
2023/02/10 00:12:27;;;;;;;20.05;11.90;;;23.00;34.40;;;;;;6127433;28;83500;-61
2023/02/10 00:15:27;;;;;;;23.17;12.88;;;23.00;34.40;;;;;;6115381;28;83159;-61
2023/02/10 00:18:28;;;;;;;18.85;11.30;;;22.90;34.30;;;;;;6114779;28;83404;-61
2023/02/10 00:21:28;;;;;;;21.63;12.02;;;22.90;34.20;;;;;;6105377;28;84011;-60
2023/02/10 00:24:29;;;;;;;19.50;11.95;;;22.80;34.00;;;;;;6112243;28;83389;-60
2023/02/10 00:27:29;;;;;;;19.27;11.93;;;22.80;34.00;;;;;;6123613;28;83434;-61
2023/02/10 00:30:30;;;;;;;17.67;10.65;;;22.80;34.20;;;;;;6116223;28;83309;-61
2023/02/10 00:33:30;;;;;;;18.95;10.57;;;22.70;34.40;;;;;;6113859;28;83112;-61
2023/02/10 00:36:31;;;;;;;17.80;10.93;;;22.70;33.90;;;;;;6103119;28;83228;-61
2023/02/10 00:39:31;;;;;;;18.55;10.65;;;22.70;34.10;;;;;;6102146;28;83926;-70
2023/02/10 00:42:34;;;;;;;17.63;10.95;;;22.70;34.00;;;;;;6137886;28;85779;-71
2023/02/10 00:45:37;;;;;;;18.40;10.38;;;22.70;34.20;;;;;;6114926;28;83398;-71
2023/02/10 00:48:38;;;;;;;17.00;9.88;;;22.60;34.30;;;;;;6119011;28;85284;-72
2023/02/10 00:51:38;;;;;;;17.48;10.40;;;22.60;34.30;;;;;;6108956;28;82992;-71
2023/02/10 00:54:39;;;;;;;15.65;9.70;;;22.70;34.40;;;;;;6108960;28;83443;-69
2023/02/10 00:57:41;;;;;;;15.73;9.20;;;22.60;34.30;;;;;;6121761;28;82854;-69
2023/02/10 01:00:41;;;;;;;18.35;9.50;;;22.60;34.20;;;;;;6120439;28;83095;-68
2023/02/10 01:03:42;;;;;;;17.13;9.05;;;22.60;34.40;;;;;;6138110;28;81736;-68
2023/02/10 01:06:43;;;;;;;16.02;9.70;;;22.60;34.30;;;;;;6125640;28;83218;-66
2023/02/10 01:09:43;;;;;;;18.45;9.90;;;22.70;34.40;;;;;;6137413;28;82059;-66
2023/02/10 01:12:44;;;;;;;16.92;10.13;;;22.70;34.30;;;;;;6134987;28;80462;-66
2023/02/10 01:15:44;;;;;;;14.23;8.70;;;22.70;34.20;;;;;;6101007;28;82780;-64
2023/02/10 01:18:45;;;;;;;22.38;9.65;;;22.60;34.50;;;;;;6118616;28;83227;-69
2023/02/10 01:21:45;;;;;;;15.52;8.90;;;22.60;34.40;;;;;;6136586;28;82044;-66
2023/02/10 01:24:46;;;;;;;15.70;9.00;;;22.60;34.70;;;;;;6128382;28;80383;-68
2023/02/10 01:27:46;;;;;;;15.38;8.85;;;22.60;35.00;;;;;;6137000;28;82830;-71
2023/02/10 01:30:47;;;;;;;14.75;8.02;;;22.60;35.00;;;;;;6120945;28;80413;-69
2023/02/10 01:33:47;;;;;;;16.48;8.90;;;22.60;35.30;;;;;;6110681;28;81536;-70
2023/02/10 01:36:48;;;;;;;13.90;8.32;;;22.60;35.40;;;;;;6118109;28;81474;-70
2023/02/10 01:39:48;;;;;;;16.45;9.23;;;22.50;35.20;;;;;;6107247;28;81742;-66
2023/02/10 01:42:49;;;;;;;15.63;8.73;;;22.50;35.30;;;;;;6110363;28;80881;-68
2023/02/10 01:45:49;;;;;;;14.70;9.02;;;22.50;35.40;;;;;;6119297;28;80701;-69
2023/02/10 01:48:50;;;;;;;15.05;9.15;;;22.50;35.30;;;;;;6117915;28;83292;-72
2023/02/10 01:51:51;;;;;;;15.65;9.43;;;22.50;35.40;;;;;;6126935;28;80372;-68
2023/02/10 01:54:51;;;;;;;15.40;8.98;;;22.50;35.30;;;;;;6120074;28;82985;-68
2023/02/10 01:57:55;;;;;;;14.77;9.00;;;22.50;35.30;;;;;;6108691;28;81265;-68
2023/02/10 02:00:55;;;;;;;15.38;9.07;;;22.50;35.50;;;;;;6115018;28;83401;-68
2023/02/10 02:03:56;;;;;;;14.00;8.13;;;22.50;35.30;;;;;;6122717;28;82848;-69
2023/02/10 02:06:57;;;;;;;14.25;8.05;;;22.40;35.30;;;;;;6148083;28;83394;-68
2023/02/10 02:09:59;;;;;;;14.63;8.45;;;22.50;35.40;;;;;;6131775;28;82852;-72
2023/02/10 02:13:00;;;;;;;12.45;7.97;;;22.40;35.50;;;;;;6121579;28;81675;-56
2023/02/10 02:16:01;;;;;;;12.90;7.63;;;22.40;35.50;;;;;;6118374;28;83287;-57
2023/02/10 02:19:01;;;;;;;13.63;7.80;;;22.40;35.50;;;;;;6131882;28;80523;-54
2023/02/10 02:22:02;;;;;;;12.52;7.55;;;22.40;35.50;;;;;;6107483;28;81570;-56
2023/02/10 02:25:02;;;;;;;12.10;7.63;;;22.40;35.50;;;;;;6121066;28;80671;-57
2023/02/10 02:28:03;;;;;;;13.18;7.68;;;22.40;35.40;;;;;;6108735;28;80931;-57
2023/02/10 02:31:03;;;;;;;13.00;7.53;;;22.40;35.20;;;;;;6109544;28;80816;-59
2023/02/10 02:34:04;;;;;;;13.48;7.78;;;22.40;35.10;;;;;;6114964;28;80466;-58
2023/02/10 02:37:05;;;;;;;10.07;6.40;;;22.40;35.10;;;;;;6117583;28;80348;-57
2023/02/10 02:40:05;;;;;;;12.25;6.88;;;22.40;35.10;;;;;;6108300;28;81081;-58
2023/02/10 02:43:06;;;;;;;11.63;7.13;;;22.40;35.00;;;;;;6111011;28;81832;-57
2023/02/10 02:46:06;;;;;;;11.65;6.88;;;22.40;35.00;;;;;;6137474;28;83307;-57
2023/02/10 02:49:07;;;;;;;11.75;7.68;;;22.40;34.90;;;;;;6141341;28;81807;-58
2023/02/10 02:52:07;;;;;;;10.93;7.00;;;22.40;34.90;;;;;;6128903;28;81713;-56
2023/02/10 02:55:08;;;;;;;11.00;6.30;;;22.40;34.90;;;;;;6137653;28;81391;-57
2023/02/10 02:58:08;;;;;;;10.52;6.60;;;22.40;34.80;;;;;;6149674;28;81408;-55
2023/02/10 03:01:09;;;;;;;10.85;6.35;;;22.40;34.70;;;;;;6131700;28;81525;-56
2023/02/10 03:04:09;;;;;;;8.95;6.00;;;22.40;34.60;;;;;;6130127;28;80304;-56
2023/02/10 03:07:10;;;;;;;12.60;7.05;;;22.40;34.90;;;;;;6129691;28;81678;-60
2023/02/10 03:10:10;;;;;;;9.90;6.82;;;22.40;34.70;;;;;;6130293;28;80574;-61
2023/02/10 03:13:11;;;;;;;11.13;6.20;;;22.40;34.80;;;;;;6130063;28;80499;-60
2023/02/10 03:16:11;;;;;;;8.07;6.28;;;22.40;34.70;;;;;;6142118;28;80329;-60
2023/02/10 03:19:12;;;;;;;9.93;5.80;;;22.40;34.90;;;;;;6128686;28;80301;-60
2023/02/10 03:22:12;;;;;;;8.80;5.90;;;22.30;34.60;;;;;;6131014;28;83736;-62
2023/02/10 03:25:13;;;;;;;8.20;5.50;;;22.40;34.80;;;;;;6119672;28;85757;-66
2023/02/10 03:28:13;;;;;;;9.77;6.38;;;22.30;34.70;;;;;;6106773;28;81134;-68
2023/02/10 03:31:14;;;;;;;8.40;5.65;;;22.30;34.70;;;;;;6098487;28;81017;-68
2023/02/10 03:34:15;;;;;;;10.65;5.78;;;22.30;34.70;;;;;;6118789;28;82291;-70
2023/02/10 03:37:15;;;;;;;9.70;5.28;;;22.30;34.80;;;;;;6138397;28;81662;-70
2023/02/10 03:40:16;;;;;;;7.95;5.32;;;22.30;35.00;;;;;;6108762;28;81751;-69
2023/02/10 03:43:16;;;;;;;8.98;5.18;;;22.30;34.90;;;;;;6119431;28;82424;-56
2023/02/10 03:46:17;;;;;;;7.63;5.13;;;22.30;34.80;;;;;;6120601;28;81815;-49
2023/02/10 03:49:17;;;;;;;7.72;5.25;;;22.30;35.30;;;;;;6113354;28;81062;-53
2023/02/10 03:52:18;;;;;;;7.65;5.00;;;22.30;34.50;;;;;;6119465;28;80513;-54
2023/02/10 03:55:19;;;;;;;8.73;5.57;;;22.30;34.50;;;;;;6105975;28;81495;-52
2023/02/10 03:58:19;;;;;;;6.10;4.68;;;22.30;34.50;;;;;;6106293;28;80485;-53
2023/02/10 04:01:20;;;;;;;8.75;5.57;;;22.40;34.40;;;;;;6111028;28;80334;-60
2023/02/10 04:04:20;;;;;;;8.00;5.10;;;22.40;34.30;;;;;;6123744;28;82447;-60
2023/02/10 04:07:21;;;;;;;7.65;5.20;;;22.50;34.10;;;;;;6128835;28;80104;-60
2023/02/10 04:10:21;;;;;;;7.45;5.15;;;22.50;33.70;;;;;;6119946;28;80740;-60
2023/02/10 04:13:22;;;;;;;8.48;5.35;;;22.60;33.70;;;;;;6118796;28;81988;-60
2023/02/10 04:16:27;;;;;;;8.63;5.68;;;22.60;33.30;;;;;;6123671;28;80506;-60
2023/02/10 04:19:27;;;;;;;8.05;5.85;;;22.70;33.30;;;;;;6125372;28;80987;-60
2023/02/10 04:22:28;;;;;;;8.90;5.47;;;22.80;33.20;;;;;;6119313;28;82579;-60
2023/02/10 04:25:28;;;;;;;7.60;5.43;;;22.80;33.20;;;;;;6116707;28;80549;-60
2023/02/10 04:28:29;;;;;;;7.93;5.43;;;22.90;33.10;;;;;;6119753;28;80494;-58
2023/02/10 04:31:29;;;;;;;7.78;4.88;;;22.90;33.10;;;;;;6127466;28;80735;-60
2023/02/10 04:34:30;;;;;;;8.20;5.38;;;23.00;33.10;;;;;;6128725;28;80399;-58
2023/02/10 04:37:30;;;;;;;7.05;5.03;;;23.00;33.00;;;;;;6139749;28;81883;-60
2023/02/10 04:40:31;;;;;;;6.90;4.75;;;23.00;32.90;;;;;;6105496;28;81076;-60
2023/02/10 04:43:31;;;;;;;10.73;5.90;;;23.10;32.90;;;;;;6105621;28;82126;-61
2023/02/10 04:46:32;;;;;;;8.18;5.18;;;23.10;32.80;;;;;;6108652;28;80409;-61
2023/02/10 04:49:32;;;;;;;7.22;4.78;;;23.10;32.70;;;;;;6121516;28;80183;-59
2023/02/10 04:52:33;;;;;;;10.30;5.45;;;23.10;32.90;;;;;;6105299;28;80454;-60
2023/02/10 04:55:33;;;;;;;9.32;5.63;;;23.10;32.80;;;;;;6106499;28;80304;-62
2023/02/10 04:58:34;;;;;;;9.65;5.72;;;23.10;32.70;;;;;;6109708;28;80248;-61
2023/02/10 05:01:34;;;;;;;9.35;5.70;;;23.20;32.90;;;;;;6122115;28;80170;-60
2023/02/10 05:04:35;;;;;;;8.98;5.28;;;23.20;33.10;;;;;;6120982;28;80249;-60
2023/02/10 05:07:35;;;;;;;8.65;6.22;;;23.20;33.20;;;;;;6118640;28;80406;-61
2023/02/10 05:10:36;;;;;;;8.98;5.47;;;23.20;33.40;;;;;;6127522;28;80941;-61
2023/02/10 05:13:36;;;;;;;11.35;6.55;;;23.20;34.00;;;;;;6128164;28;80880;-62
2023/02/10 05:16:37;;;;;;;12.90;7.00;;;23.20;33.50;;;;;;6133575;28;80365;-59
2023/02/10 05:19:37;;;;;;;13.43;7.38;;;23.20;33.50;;;;;;6135881;28;86401;-61
2023/02/10 05:22:38;;;;;;;18.95;7.60;;;23.30;33.40;;;;;;6146619;28;80803;-59
2023/02/10 05:25:39;;;;;;;12.20;8.18;;;23.30;33.50;;;;;;6128139;28;80388;-58
2023/02/10 05:28:39;;;;;;;11.85;7.30;;;23.30;33.40;;;;;;6128630;28;80752;-63
2023/02/10 05:31:40;;;;;;;13.00;7.75;;;23.30;33.10;;;;;;6127731;28;83360;-59
2023/02/10 05:34:40;;;;;;;13.73;8.65;;;23.30;33.40;;;;;;6143125;28;82179;-61
2023/02/10 05:37:41;;;;;;;17.13;7.85;;;23.30;32.40;;;;;;6135920;28;81718;-61
2023/02/10 05:40:41;;;;;;;16.42;9.80;;;23.30;33.10;;;;;;6099336;28;84675;-61
2023/02/10 05:43:42;;;;;;;16.17;9.68;;;23.30;33.20;;;;;;6096445;28;81956;-60
2023/02/10 05:46:43;;;;;;;16.65;9.57;;;23.30;33.30;;;;;;6109517;28;80174;-60
2023/02/10 05:49:43;;;;;;;18.83;9.77;;;23.20;34.10;;;;;;6104445;28;81222;-62
2023/02/10 05:52:44;;;;;;;16.35;9.70;;;23.20;34.00;;;;;;6108790;28;80728;-58
2023/02/10 05:55:45;;;;;;;17.27;9.77;;;23.20;33.90;;;;;;6120948;28;80611;-58
2023/02/10 05:58:45;;;;;;;18.77;10.43;;;23.20;33.80;;;;;;6115832;28;85310;-62
2023/02/10 06:01:46;;;;;;;20.75;12.13;;;23.10;33.60;;;;;;6098837;28;87510;-54
2023/02/10 06:04:46;;;;;;;17.15;10.32;;;23.10;33.30;;;;;;6102052;28;83452;-57
2023/02/10 06:07:47;;;;;;;20.80;12.05;;;23.00;33.00;;;;;;6110574;28;83133;-61
2023/02/10 06:10:47;;;;;;;20.88;12.50;;;23.10;32.80;;;;;;6109774;28;84056;-58
2023/02/10 06:13:48;;;;;;;20.30;11.85;;;23.00;33.00;;;;;;6114595;28;82840;-56
2023/02/10 06:16:48;;;;;;;23.27;12.25;;;23.00;33.30;;;;;;6105104;28;83265;-54
2023/02/10 06:19:49;;;;;;;20.25;11.57;;;23.00;33.00;;;;;;6115391;28;83537;-54
2023/02/10 06:22:50;;;;;;;22.83;10.80;;;22.90;32.40;;;;;;6134634;28;83018;-56
2023/02/10 06:25:54;;;;;;;15.48;9.60;;;22.80;32.00;;;;;;6113990;28;82966;-56
2023/02/10 06:28:54;;;;;;;13.10;8.25;;;22.70;32.20;;;;;;6111532;28;83063;-55
2023/02/10 06:31:55;;;;;;;15.35;7.47;;;22.60;32.60;;;;;;6123668;28;80399;-56
2023/02/10 06:34:55;;;;;;;15.00;8.35;;;22.60;32.40;;;;;;6126398;28;81096;-54
2023/02/10 06:37:56;;;;;;;23.75;15.98;;;22.60;32.10;;;;;;6131333;28;83165;-52
2023/02/10 06:40:57;;;;;;;24.70;16.25;;;22.50;32.50;;;;;;6124313;28;82919;-50
2023/02/10 06:43:57;;;;;;;47.40;29.67;;;22.40;32.10;;;;;;6096561;28;84751;-55
2023/02/10 06:46:58;;;;;;;89.15;60.17;;;22.40;32.10;;;;;;6117244;28;89619;-54
2023/02/10 06:49:58;;;;;;;75.78;53.47;;;22.40;32.70;;;;;;6098906;28;85010;-56
2023/02/10 06:52:59;;;;;;;77.15;53.42;;;22.40;32.50;;;;;;6107256;28;86590;-55
2023/02/10 06:56:00;;;;;;;83.47;59.33;;;22.30;33.40;;;;;;6116365;28;83305;-56
2023/02/10 06:59:00;;;;;;;78.40;53.13;;;22.40;33.20;;;;;;6108678;28;83152;-54
2023/02/10 07:02:01;;;;;;;67.32;47.88;;;22.30;33.20;;;;;;6111782;28;84432;-54
2023/02/10 07:05:06;;;;;;;62.90;43.30;;;22.30;32.90;;;;;;6113956;28;83301;-54
2023/02/10 07:08:06;;;;;;;53.53;36.95;;;22.20;32.80;;;;;;6113496;28;83171;-55
2023/02/10 07:11:07;;;;;;;44.38;32.42;;;22.20;32.40;;;;;;6125983;28;83042;-51
2023/02/10 07:14:08;;;;;;;39.20;27.90;;;22.20;32.40;;;;;;6114285;28;89197;-55
2023/02/10 07:17:08;;;;;;;36.67;25.90;;;22.20;32.40;;;;;;6116292;28;83446;-54
2023/02/10 07:20:09;;;;;;;38.78;26.90;;;22.10;32.40;;;;;;6128690;28;83167;-51
2023/02/10 07:23:09;;;;;;;38.40;25.33;;;22.40;32.70;;;;;;6102971;28;85936;-55
2023/02/10 07:26:11;;;;;;;37.17;23.40;;;22.50;32.20;;;;;;6104360;28;83474;-53
2023/02/10 07:29:12;;;;;;;34.17;22.30;;;22.60;31.90;;;;;;6111653;28;92493;-53
2023/02/10 07:32:12;;;;;;;30.15;21.40;;;22.70;31.80;;;;;;6129624;28;84608;-53
2023/02/10 07:35:13;;;;;;;30.63;21.17;;;22.80;31.60;;;;;;6103133;28;83535;-54
2023/02/10 07:38:14;;;;;;;30.60;19.75;;;22.80;31.60;;;;;;6106852;28;83231;-51
2023/02/10 07:41:14;;;;;;;30.70;19.33;;;22.90;31.60;;;;;;6098469;28;83082;-53
2023/02/10 07:44:15;;;;;;;26.48;17.67;;;23.00;32.10;;;;;;6102583;28;83555;-53
2023/02/10 07:47:16;;;;;;;27.35;17.60;;;23.00;32.10;;;;;;6124730;28;85270;-49
2023/02/10 07:50:16;;;;;;;22.00;15.57;;;23.00;31.70;;;;;;6127640;28;83978;-52
2023/02/10 07:53:17;;;;;;;22.67;15.45;;;23.10;31.70;;;;;;6115047;28;83168;-54
2023/02/10 07:56:17;;;;;;;25.70;14.50;;;23.10;32.10;;;;;;6128878;28;83178;-53
2023/02/10 07:59:18;;;;;;;19.67;13.23;;;23.10;31.40;;;;;;6131659;28;83635;-50
2023/02/10 08:02:18;;;;;;;19.50;12.38;;;23.10;31.40;;;;;;6127077;28;83085;-60
2023/02/10 08:05:19;;;;;;;17.48;11.48;;;23.20;31.20;;;;;;6122138;28;83826;-62
2023/02/10 08:08:19;;;;;;;18.60;11.02;;;23.20;31.10;;;;;;6119280;28;83397;-63
2023/02/10 08:11:20;;;;;;;16.23;10.95;;;23.30;31.20;;;;;;6122468;28;83069;-60
2023/02/10 08:14:20;;;;;;;16.00;10.65;;;23.30;31.20;;;;;;6114645;28;83189;-62
2023/02/10 08:17:21;;;;;;;18.08;10.95;;;23.40;31.20;;;;;;6103813;28;82824;-60
2023/02/10 08:20:21;;;;;;;20.58;10.32;;;23.40;31.20;;;;;;6115289;28;82886;-60
2023/02/10 08:23:22;;;;;;;15.73;9.40;;;23.40;31.30;;;;;;6120168;28;83420;-61
2023/02/10 08:26:23;;;;;;;16.15;9.38;;;23.50;31.30;;;;;;6139464;28;87664;-59
2023/02/10 08:29:23;;;;;;;16.08;10.27;;;23.50;31.30;;;;;;6125854;28;81465;-59
2023/02/10 08:32:24;;;;;;;16.25;9.23;;;23.60;31.40;;;;;;6113052;28;83038;-59
2023/02/10 08:35:24;;;;;;;16.55;9.45;;;23.60;31.40;;;;;;6124734;28;82811;-60
2023/02/10 08:38:25;;;;;;;15.02;8.68;;;23.70;31.10;;;;;;6108616;28;80997;-61
2023/02/10 08:41:29;;;;;;;16.55;9.48;;;23.70;30.90;;;;;;6112428;28;80472;-60
2023/02/10 08:44:30;;;;;;;16.15;9.95;;;23.70;31.00;;;;;;6125794;28;82624;-59
2023/02/10 08:47:30;;;;;;;13.85;9.30;;;23.80;30.60;;;;;;6116227;28;80844;-60
2023/02/10 08:50:31;;;;;;;14.80;9.60;;;23.80;30.60;;;;;;6109117;28;80653;-62
2023/02/10 08:53:32;;;;;;;14.05;8.80;;;23.80;30.60;;;;;;6107956;28;80535;-60
2023/02/10 08:56:32;;;;;;;15.55;9.63;;;23.90;30.80;;;;;;6111304;28;80382;-58
2023/02/10 08:59:33;;;;;;;17.02;10.10;;;24.00;30.80;;;;;;6113431;28;80843;-60
2023/02/10 09:02:33;;;;;;;14.75;9.25;;;24.00;30.60;;;;;;6107764;28;83276;-61
2023/02/10 09:05:34;;;;;;;18.35;10.07;;;24.10;30.90;;;;;;6109043;28;82975;-60
2023/02/10 09:08:34;;;;;;;12.98;8.80;;;24.10;30.90;;;;;;6111601;28;83148;-60
2023/02/10 09:11:35;;;;;;;15.32;9.27;;;24.10;31.00;;;;;;6141106;28;83234;-61
2023/02/10 09:14:35;;;;;;;16.17;10.27;;;24.20;31.00;;;;;;6132111;28;80503;-61
2023/02/10 09:17:36;;;;;;;17.40;10.15;;;24.10;30.90;;;;;;6119918;28;82963;-61
2023/02/10 09:20:36;;;;;;;14.65;9.73;;;24.20;30.90;;;;;;6102980;28;83117;-61
2023/02/10 09:23:37;;;;;;;15.05;9.52;;;24.20;31.00;;;;;;6128450;28;85479;-59
2023/02/10 09:26:37;;;;;;;18.05;10.02;;;24.20;31.20;;;;;;6115586;28;80367;-60
2023/02/10 09:29:38;;;;;;;18.70;10.13;;;24.30;31.20;;;;;;6109248;28;83490;-60
2023/02/10 09:32:38;;;;;;;16.27;10.40;;;24.30;31.00;;;;;;6113948;28;82766;-61
2023/02/10 09:35:40;;;;;;;16.08;10.20;;;24.30;31.20;;;;;;6124175;28;85897;-60
2023/02/10 09:38:41;;;;;;;19.23;10.15;;;24.30;31.80;;;;;;6128777;28;83038;-62
2023/02/10 09:41:41;;;;;;;17.08;9.85;;;24.40;31.40;;;;;;6129658;28;83500;-62
2023/02/10 09:44:42;;;;;;;18.38;10.82;;;24.40;31.30;;;;;;6128871;28;83180;-59
2023/02/10 09:47:42;;;;;;;16.48;10.13;;;24.40;31.60;;;;;;6119038;28;83205;-58
2023/02/10 09:50:43;;;;;;;18.75;10.18;;;24.40;31.70;;;;;;6119046;28;83165;-60
2023/02/10 09:53:43;;;;;;;16.52;10.05;;;24.50;31.90;;;;;;6122775;28;83141;-60
2023/02/10 09:56:44;;;;;;;18.15;11.23;;;24.60;31.80;;;;;;6114848;28;83973;-61
2023/02/10 09:59:44;;;;;;;17.38;11.30;;;24.60;31.80;;;;;;6125097;28;83695;-59
2023/02/10 10:02:45;;;;;;;14.45;10.35;;;24.70;31.80;;;;;;6117033;28;83607;-61
2023/02/10 10:05:46;;;;;;;17.50;11.05;;;24.80;31.60;;;;;;6112022;28;83363;-60
2023/02/10 10:08:46;;;;;;;15.18;10.40;;;24.80;31.60;;;;;;6118270;28;83180;-59
2023/02/10 10:11:47;;;;;;;17.83;10.32;;;24.90;31.80;;;;;;6120832;28;83964;-59
2023/02/10 10:14:49;;;;;;;15.65;10.77;;;24.90;31.70;;;;;;6122054;28;83722;-59
2023/02/10 10:17:49;;;;;;;19.67;12.02;;;25.00;31.80;;;;;;6115780;28;83587;-64
2023/02/10 10:20:51;;;;;;;17.80;9.75;;;25.10;32.00;;;;;;6119414;28;83395;-58
2023/02/10 10:23:51;;;;;;;13.77;9.20;;;25.10;32.00;;;;;;6123133;28;83038;-59
2023/02/10 10:26:52;;;;;;;15.65;9.90;;;25.10;32.10;;;;;;6124106;28;82011;-61
2023/02/10 10:29:52;;;;;;;14.05;9.43;;;25.10;32.20;;;;;;6125082;28;80970;-60
2023/02/10 10:32:53;;;;;;;19.00;10.10;;;25.20;32.10;;;;;;6117266;28;80594;-63
2023/02/10 10:35:54;;;;;;;12.55;8.52;;;25.20;32.50;;;;;;6116041;28;82737;-66
2023/02/10 10:38:54;;;;;;;15.70;10.00;;;25.20;32.90;;;;;;6109902;28;83057;-68
2023/02/10 10:41:55;;;;;;;13.48;8.85;;;25.20;32.60;;;;;;6116772;28;83133;-70
2023/02/10 10:44:55;;;;;;;15.63;8.23;;;25.30;33.20;;;;;;6112475;28;82979;-66
2023/02/10 10:47:56;;;;;;;12.95;8.32;;;25.30;33.40;;;;;;6121372;28;82266;-65
2023/02/10 10:50:57;;;;;;;11.93;8.07;;;25.30;33.20;;;;;;6046518;28;86290;-64
2023/02/10 10:53:57;;;;;;;12.02;7.82;;;25.30;33.90;;;;;;6091165;28;83068;-63
2023/02/10 10:56:58;;;;;;;12.73;6.72;;;25.30;35.00;;;;;;6125787;28;80913;-66
2023/02/10 10:59:58;;;;;;;10.63;7.85;;;25.20;35.40;;;;;;6117478;28;80345;-67
2023/02/10 11:02:59;;;;;;;9.65;6.85;;;25.10;35.60;;;;;;6119814;28;80408;-64
2023/02/10 11:05:59;;;;;;;10.95;6.90;;;25.00;35.80;;;;;;6113860;28;80773;-63
2023/02/10 11:09:00;;;;;;;12.50;7.47;;;25.00;36.10;;;;;;6121842;28;81445;-62
2023/02/10 11:12:01;;;;;;;8.73;6.32;;;24.90;36.60;;;;;;6123631;28;80654;-62
2023/02/10 11:15:01;;;;;;;10.73;5.97;;;24.90;36.80;;;;;;6118618;28;80883;-63
2023/02/10 11:18:02;;;;;;;10.80;7.00;;;25.00;37.00;;;;;;6116600;28;82222;-66
2023/02/10 11:21:02;;;;;;;12.27;6.57;;;24.90;36.90;;;;;;6114937;28;81453;-68
2023/02/10 11:24:03;;;;;;;10.32;6.47;;;24.90;37.20;;;;;;6116205;28;86158;-50
2023/02/10 11:27:03;;;;;;;12.25;6.90;;;24.90;37.30;;;;;;6128694;28;87691;-50
2023/02/10 11:30:04;;;;;;;10.45;6.38;;;24.90;37.40;;;;;;6119332;28;82058;-50
2023/02/10 11:33:04;;;;;;;15.35;8.20;;;24.80;37.50;;;;;;6121518;28;80494;-51
2023/02/10 11:36:05;;;;;;;9.50;6.10;;;24.80;37.50;;;;;;6117152;28;84499;-49
2023/02/10 11:39:05;;;;;;;10.52;6.68;;;24.80;37.30;;;;;;6113116;28;80267;-47
2023/02/10 11:42:06;;;;;;;8.68;6.05;;;24.80;37.10;;;;;;6104733;28;80696;-48
2023/02/10 11:45:06;;;;;;;8.75;6.00;;;24.80;37.00;;;;;;6114088;28;80486;-49
2023/02/10 11:48:07;;;;;;;11.23;6.72;;;24.80;38.00;;;;;;6100506;28;81734;-47
2023/02/10 11:51:07;;;;;;;13.00;7.30;;;24.80;38.20;;;;;;6092349;28;82326;-48
2023/02/10 11:54:08;;;;;;;11.18;7.80;;;24.70;37.30;;;;;;6106050;28;81265;-48
2023/02/10 12:00:28;;;;;;;13.35;8.07;;;24.60;35.30;;;;;;6104780;28;81523;-58
2023/02/10 12:03:28;;;;;;;13.55;7.30;;;24.60;34.90;;;;;;6103141;28;80653;-58
2023/02/10 12:06:29;;;;;;;12.57;7.65;;;24.60;33.80;;;;;;6107434;28;82935;-55
2023/02/10 12:09:29;;;;;;;12.05;7.03;;;24.60;33.90;;;;;;6102161;28;81119;-59
2023/02/10 12:12:30;;;;;;;8.85;6.00;;;24.60;33.60;;;;;;6071988;28;85483;-58
2023/02/10 12:15:30;;;;;;;10.13;6.68;;;24.60;33.40;;;;;;6091252;28;84422;-57
2023/02/10 12:18:31;;;;;;;7.93;6.43;;;24.50;33.10;;;;;;6106799;28;83046;-57
2023/02/10 12:21:32;;;;;;;8.90;6.55;;;24.40;32.80;;;;;;6106632;28;81758;-59
2023/02/10 12:24:33;;;;;;;9.73;6.90;;;24.30;33.00;;;;;;6128598;28;82716;-59
2023/02/10 12:27:33;;;;;;;12.70;8.02;;;24.30;32.90;;;;;;6116681;28;85572;-57
2023/02/10 12:30:34;;;;;;;12.07;7.40;;;24.20;32.90;;;;;;6121383;28;81537;-54
2023/02/10 12:33:34;;;;;;;9.23;6.82;;;24.10;32.90;;;;;;6105399;28;81399;-59
2023/02/10 12:36:35;;;;;;;10.48;7.10;;;24.10;33.10;;;;;;6100961;28;81050;-60
2023/02/10 12:39:36;;;;;;;10.40;6.63;;;24.00;32.20;;;;;;6119093;28;80548;-60
2023/02/10 12:42:36;;;;;;;10.15;7.07;;;23.90;32.70;;;;;;6109522;28;80996;-58
2023/02/10 12:45:37;;;;;;;9.88;6.70;;;23.80;32.70;;;;;;6105405;28;80545;-58
2023/02/10 12:48:41;;;;;;;11.40;7.43;;;23.80;32.60;;;;;;6117428;28;81563;-58
2023/02/10 12:51:41;;;;;;;11.10;7.50;;;23.70;32.90;;;;;;6106031;28;80221;-59
2023/02/10 12:54:42;;;;;;;11.18;6.68;;;23.60;32.00;;;;;;6113410;28;81215;-59
2023/02/10 12:57:42;;;;;;;9.02;6.40;;;23.60;32.20;;;;;;6109005;28;81377;-58
2023/02/10 13:00:43;;;;;;;9.85;6.93;;;23.60;32.40;;;;;;6115832;28;80876;-59
2023/02/10 13:03:44;;;;;;;13.55;7.95;;;23.60;32.30;;;;;;6107637;28;81198;-59
2023/02/10 13:06:44;;;;;;;15.48;8.70;;;23.60;32.30;;;;;;6119421;28;81130;-59
2023/02/10 13:09:45;;;;;;;11.23;8.23;;;23.60;31.60;;;;;;6107519;28;80555;-59
2023/02/10 13:12:45;;;;;;;13.55;8.55;;;23.60;32.00;;;;;;6103866;28;80886;-58
2023/02/10 13:15:46;;;;;;;12.60;8.27;;;23.80;32.10;;;;;;6108984;28;80615;-58
2023/02/10 13:18:47;;;;;;;18.80;8.77;;;23.80;32.10;;;;;;6104972;28;81049;-59
2023/02/10 13:21:47;;;;;;;13.43;8.57;;;24.00;31.80;;;;;;6130164;28;83303;-59
2023/02/10 13:24:48;;;;;;;10.52;7.68;;;24.00;31.90;;;;;;6126741;28;82046;-58
2023/02/10 13:27:49;;;;;;;9.30;6.63;;;24.20;32.20;;;;;;6117027;28;81226;-58
2023/02/10 13:30:49;;;;;;;8.57;6.15;;;24.40;32.90;;;;;;6111660;28;81790;-63
2023/02/10 13:33:50;;;;;;;10.98;6.50;;;24.40;33.50;;;;;;6115676;28;80433;-61
2023/02/10 13:36:50;;;;;;;8.63;5.35;;;24.50;34.20;;;;;;6115944;28;81031;-62
2023/02/10 13:39:51;;;;;;;6.10;5.10;;;24.50;34.70;;;;;;6113921;28;83586;-62
2023/02/10 13:42:52;;;;;;;9.75;5.82;;;24.50;35.00;;;;;;6124697;28;82420;-61
2023/02/10 13:45:52;;;;;;;8.65;5.45;;;24.50;35.40;;;;;;6117163;28;81576;-62
2023/02/10 13:48:53;;;;;;;8.85;5.28;;;24.60;35.70;;;;;;6112822;28;83904;-63
2023/02/10 13:51:53;;;;;;;7.80;4.88;;;24.70;35.60;;;;;;6118907;28;83030;-65
2023/02/10 13:54:54;;;;;;;7.50;5.20;;;24.70;36.00;;;;;;6086776;28;82714;-65
2023/02/10 13:57:54;;;;;;;7.07;4.80;;;24.90;35.60;;;;;;6102451;28;80849;-62
2023/02/10 14:00:55;;;;;;;11.57;5.70;;;25.10;35.40;;;;;;6114008;28;82638;-62
2023/02/10 14:03:55;;;;;;;6.60;4.78;;;25.20;35.20;;;;;;6106214;28;81705;-61
2023/02/10 14:06:56;;;;;;;6.22;4.55;;;25.50;35.40;;;;;;6111416;28;80882;-64
2023/02/10 14:09:57;;;;;;;7.10;4.32;;;25.50;34.70;;;;;;6097057;28;81712;-62
2023/02/10 14:12:57;;;;;;;6.47;4.63;;;25.60;36.00;;;;;;6108799;28;81373;-64
2023/02/10 14:15:58;;;;;;;40.30;20.80;;;25.90;34.90;;;;;;6123317;28;83550;-63
2023/02/10 14:18:58;;;;;;;95.88;47.20;;;25.80;34.90;;;;;;6105456;28;82831;-62
2023/02/10 14:21:59;;;;;;;149.45;72.93;;;25.60;35.10;;;;;;6110759;28;84403;-62
2023/02/10 14:24:59;;;;;;;119.85;61.10;;;25.40;35.50;;;;;;6109585;28;83209;-63
2023/02/10 14:28:00;;;;;;;97.38;48.78;;;25.20;36.00;;;;;;6107922;28;83044;-63
2023/02/10 14:31:00;;;;;;;81.05;39.72;;;25.00;36.90;;;;;;6116450;28;84793;-62
2023/02/10 14:34:01;;;;;;;71.97;34.78;;;24.90;36.70;;;;;;6104419;28;83922;-62
2023/02/10 14:37:02;;;;;;;60.78;28.83;;;24.70;37.10;;;;;;6105948;28;83976;-62
2023/02/10 14:40:03;;;;;;;51.78;26.25;;;24.60;37.40;;;;;;6087918;28;86252;-64
2023/02/10 14:43:03;;;;;;;43.60;22.17;;;24.50;37.50;;;;;;6104858;28;83663;-63
2023/02/10 14:46:04;;;;;;;39.20;18.83;;;24.40;38.60;;;;;;6104365;28;88313;-62
2023/02/10 14:49:04;;;;;;;38.25;18.23;;;24.30;38.10;;;;;;6101357;28;88461;-60
2023/02/10 14:52:05;;;;;;;32.13;16.35;;;24.20;38.50;;;;;;6108217;28;84917;-63
2023/02/10 14:55:05;;;;;;;27.45;15.45;;;24.00;39.20;;;;;;6098864;28;83717;-63
2023/02/10 14:58:06;;;;;;;27.92;14.82;;;24.00;39.10;;;;;;6114747;28;83467;-63
2023/02/10 15:01:06;;;;;;;23.65;12.50;;;24.00;39.30;;;;;;6113433;28;83479;-63
2023/02/10 15:04:07;;;;;;;25.58;13.15;;;24.00;39.20;;;;;;6119484;28;83401;-64
2023/02/10 15:07:07;;;;;;;22.60;11.68;;;24.00;39.00;;;;;;6120718;28;85690;-62
2023/02/10 15:10:08;;;;;;;20.23;10.55;;;23.90;39.60;;;;;;6115892;28;87390;-63
2023/02/10 15:13:09;;;;;;;17.38;9.05;;;23.90;40.00;;;;;;6112073;28;82922;-63
2023/02/10 15:16:09;;;;;;;17.70;8.57;;;23.80;40.00;;;;;;6120154;28;81954;-65
2023/02/10 15:19:10;;;;;;;24.65;10.57;;;23.80;40.20;;;;;;6124682;28;80229;-60
2023/02/10 15:22:10;;;;;;;20.55;9.68;;;23.70;40.50;;;;;;6112399;28;83260;-62
2023/02/10 15:25:11;;;;;;;19.25;7.60;;;23.70;40.40;;;;;;6134710;28;82368;-61
2023/02/10 15:28:11;;;;;;;19.80;7.78;;;23.70;40.40;;;;;;6136031;28;81396;-63